Time;durP1;ratioP1;P1;durP2;ratioP2;P2;SDS_P1;SDS_P2;PMS_P1;PMS_P2;Temp;Humidity;BMP_temperature;BMP_pressure;BME280_temperature;BME280_humidity;BME280_pressure;Samples;Min_cycle;Max_cycle;Signal;HPM_P1;HPM_P2
2022/06/27 00:00:28;;;;;;;9.35;5.85;;;18.50;99.90;;;;;;4997080;28;20045;-84
2022/06/27 00:02:54;;;;;;;10.43;5.88;;;18.50;99.90;;;;;;5012115;28;20029;-84
2022/06/27 00:05:20;;;;;;;10.90;6.47;;;18.40;99.90;;;;;;5012888;28;20069;-84
2022/06/27 00:07:45;;;;;;;10.23;6.53;;;18.40;99.90;;;;;;5013621;28;20069;-84
2022/06/27 00:10:12;;;;;;;9.48;6.07;;;18.40;99.90;;;;;;5012517;28;20084;-84
2022/06/27 00:12:39;;;;;;;10.27;6.40;;;18.40;99.90;;;;;;4996311;28;20033;-84
2022/06/27 00:15:07;;;;;;;10.18;5.90;;;18.40;99.90;;;;;;4996019;28;20037;-84
2022/06/27 00:17:32;;;;;;;11.05;6.65;;;18.40;99.90;;;;;;5013325;28;20034;-84
2022/06/27 00:19:58;;;;;;;12.27;6.55;;;18.30;99.90;;;;;;5029556;28;20041;-84
2022/06/27 00:22:25;;;;;;;10.05;7.03;;;18.30;99.90;;;;;;5011551;28;20107;-84
2022/06/27 00:24:51;;;;;;;10.07;6.45;;;18.30;99.90;;;;;;5012761;28;20059;-84
2022/06/27 00:27:17;;;;;;;11.80;7.97;;;18.30;99.90;;;;;;5029404;28;20041;-84
2022/06/27 00:29:43;;;;;;;10.38;6.97;;;18.30;99.90;;;;;;4996896;28;20562;-84
2022/06/27 00:32:08;;;;;;;10.55;7.22;;;18.30;99.90;;;;;;5029130;28;20043;-84
2022/06/27 00:34:34;;;;;;;10.02;7.68;;;18.30;99.90;;;;;;5012201;28;20522;-84
2022/06/27 00:37:00;;;;;;;11.18;7.72;;;18.30;99.90;;;;;;5013204;28;20041;-84
2022/06/27 00:39:26;;;;;;;11.07;8.43;;;18.30;99.90;;;;;;4996225;28;20380;-84
2022/06/27 00:41:52;;;;;;;12.23;10.15;;;18.30;99.90;;;;;;4996381;28;20047;-84
2022/06/27 00:44:31;;;;;;;11.05;9.27;;;18.30;99.90;;;;;;5028681;28;20041;-84
2022/06/27 00:46:57;;;;;;;13.15;9.57;;;18.30;99.90;;;;;;5004954;28;20045;-84
2022/06/27 00:49:23;;;;;;;11.27;7.57;;;18.30;99.90;;;;;;4996442;28;20040;-84
2022/06/27 00:51:48;;;;;;;12.02;9.18;;;18.30;99.90;;;;;;5012110;28;20041;-84
2022/06/27 00:54:14;;;;;;;11.38;8.98;;;18.30;99.90;;;;;;5003694;28;20640;-84
2022/06/27 00:56:40;;;;;;;10.20;8.02;;;18.20;99.90;;;;;;4989830;28;20132;-84
2022/06/27 00:59:06;;;;;;;12.60;7.80;;;18.20;99.90;;;;;;5013357;28;20522;-84
2022/06/27 01:01:31;;;;;;;13.25;7.55;;;18.20;99.90;;;;;;5033100;28;20059;-84
2022/06/27 01:04:00;;;;;;;12.73;8.80;;;18.20;99.90;;;;;;4999312;28;20498;-84
2022/06/27 01:06:27;;;;;;;10.50;8.02;;;18.20;99.90;;;;;;5016735;28;20069;-84
2022/06/27 01:08:53;;;;;;;10.45;7.85;;;18.20;99.90;;;;;;5016330;28;20566;-84
2022/06/27 01:11:20;;;;;;;11.38;7.88;;;18.20;99.90;;;;;;5016230;28;20045;-84
2022/06/27 01:13:45;;;;;;;12.73;7.47;;;18.20;99.90;;;;;;5015462;28;20037;-84
2022/06/27 01:16:12;;;;;;;11.32;7.75;;;18.10;99.90;;;;;;5016739;28;20489;-84
2022/06/27 01:18:37;;;;;;;12.82;8.50;;;18.20;99.90;;;;;;5016272;28;20048;-84
2022/06/27 01:21:05;;;;;;;11.65;8.75;;;18.20;99.90;;;;;;5032176;28;20699;-84
2022/06/27 01:23:34;;;;;;;14.70;11.48;;;18.20;99.90;;;;;;4999426;28;20049;-84
2022/06/27 01:26:00;;;;;;;11.13;9.82;;;18.20;99.90;;;;;;5015161;28;20068;-84
2022/06/27 01:28:26;;;;;;;11.88;9.73;;;18.20;99.90;;;;;;5016380;28;20364;-84
2022/06/27 01:30:51;;;;;;;12.10;9.23;;;18.20;99.90;;;;;;5015946;28;20556;-84
2022/06/27 01:33:17;;;;;;;14.07;9.10;;;18.20;99.90;;;;;;5014899;28;20071;-84
2022/06/27 01:35:42;;;;;;;11.30;8.80;;;18.10;99.90;;;;;;5033144;28;20396;-83
2022/06/27 01:38:08;;;;;;;13.25;8.80;;;18.10;99.90;;;;;;5033241;28;20585;-84
2022/06/27 01:40:34;;;;;;;11.98;9.05;;;18.00;99.90;;;;;;5016156;28;20049;-84
2022/06/27 01:43:00;;;;;;;12.35;10.38;;;18.00;99.90;;;;;;5014973;28;20042;-84
2022/06/27 01:45:29;;;;;;;15.95;10.70;;;18.00;99.90;;;;;;5031582;28;20462;-84
2022/06/27 01:47:55;;;;;;;16.35;10.68;;;18.10;99.90;;;;;;5015421;28;20072;-84
2022/06/27 01:50:24;;;;;;;13.95;10.90;;;18.00;99.90;;;;;;5032039;28;20052;-84
2022/06/27 01:52:51;;;;;;;12.40;9.98;;;18.00;99.90;;;;;;5015088;28;20087;-84
2022/06/27 01:55:18;;;;;;;12.52;9.88;;;18.00;99.90;;;;;;5015371;28;20030;-84
2022/06/27 01:57:46;;;;;;;14.48;9.55;;;18.10;99.90;;;;;;4999341;28;20037;-84
2022/06/27 02:00:14;;;;;;;12.85;10.45;;;18.10;99.90;;;;;;5015598;28;20047;-84
2022/06/27 02:02:41;;;;;;;16.40;12.38;;;18.10;99.90;;;;;;5031956;28;20132;-84
2022/06/27 02:05:07;;;;;;;14.68;10.52;;;18.10;99.90;;;;;;5014191;28;20099;-84
2022/06/27 02:07:36;;;;;;;14.50;12.45;;;18.10;99.90;;;;;;5015114;28;20515;-84
2022/06/27 02:10:01;;;;;;;12.43;11.10;;;18.10;99.90;;;;;;5015011;28;20522;-85
2022/06/27 02:12:29;;;;;;;13.07;10.68;;;18.10;99.90;;;;;;5013678;28;20061;-84
2022/06/27 02:14:55;;;;;;;13.73;11.00;;;18.10;99.90;;;;;;5031520;28;20071;-84
2022/06/27 02:17:21;;;;;;;13.98;12.20;;;18.10;99.90;;;;;;5031628;28;20033;-84
2022/06/27 02:19:47;;;;;;;13.23;10.55;;;18.00;99.90;;;;;;4998679;28;20064;-84
2022/06/27 02:22:14;;;;;;;14.80;10.65;;;18.00;99.90;;;;;;5015318;28;20510;-84
2022/06/27 02:24:41;;;;;;;14.38;10.82;;;18.00;99.90;;;;;;5014175;28;20041;-84
2022/06/27 02:27:09;;;;;;;13.32;10.90;;;18.00;99.90;;;;;;5032858;28;20120;-84
2022/06/27 02:29:35;;;;;;;15.05;12.13;;;18.00;99.90;;;;;;5051448;28;20547;-83
2022/06/27 02:32:01;;;;;;;13.57;10.80;;;18.10;99.90;;;;;;4998999;28;20041;-84
2022/06/27 02:34:27;;;;;;;14.30;10.18;;;18.10;99.90;;;;;;5030408;28;20033;-83
2022/06/27 02:36:56;;;;;;;14.80;10.63;;;18.10;99.90;;;;;;5031408;28;20042;-84
2022/06/27 02:39:24;;;;;;;13.23;10.93;;;18.10;99.90;;;;;;5031036;28;20103;-84
2022/06/27 02:41:55;;;;;;;13.05;11.73;;;18.00;99.90;;;;;;5014615;28;20087;-84
2022/06/27 02:44:22;;;;;;;14.40;11.60;;;18.00;99.90;;;;;;5013852;28;20403;-84
2022/06/27 02:46:50;;;;;;;14.75;12.10;;;18.00;99.90;;;;;;5031158;28;20060;-84
2022/06/27 02:49:16;;;;;;;13.32;11.40;;;18.00;99.90;;;;;;5030837;28;20510;-84
2022/06/27 02:51:45;;;;;;;13.00;11.60;;;18.00;99.90;;;;;;5014138;28;20049;-84
2022/06/27 02:54:23;;;;;;;13.65;11.43;;;18.00;99.90;;;;;;5014215;28;20041;-84
2022/06/27 02:57:00;;;;;;;15.52;13.68;;;18.00;99.90;;;;;;5014139;28;20052;-84
2022/06/27 02:59:32;;;;;;;12.60;11.23;;;18.00;99.90;;;;;;5014649;28;20049;-84
2022/06/27 03:01:59;;;;;;;15.32;13.68;;;18.00;99.90;;;;;;5031117;28;20045;-84
2022/06/27 03:04:25;;;;;;;14.68;12.60;;;18.00;99.90;;;;;;5013314;28;20076;-84
2022/06/27 03:06:50;;;;;;;13.93;12.52;;;18.00;99.90;;;;;;5030296;28;20498;-84
2022/06/27 03:09:17;;;;;;;13.05;11.68;;;18.00;99.90;;;;;;5014054;28;20040;-84
2022/06/27 03:11:45;;;;;;;12.70;11.23;;;18.00;99.90;;;;;;4997568;28;20128;-84
2022/06/27 03:14:11;;;;;;;12.88;10.60;;;17.90;99.90;;;;;;4997787;28;20041;-84
2022/06/27 03:16:36;;;;;;;13.05;10.95;;;17.90;99.90;;;;;;4997276;28;20422;-84
2022/06/27 03:19:03;;;;;;;10.52;8.65;;;17.90;99.90;;;;;;5013829;28;20041;-84
2022/06/27 03:21:29;;;;;;;10.80;8.55;;;17.90;99.90;;;;;;5013336;28;20041;-84
2022/06/27 03:23:54;;;;;;;11.77;9.63;;;17.90;99.90;;;;;;5014032;28;20038;-84
2022/06/27 03:26:20;;;;;;;11.93;10.25;;;17.90;99.90;;;;;;5029695;28;20478;-84
2022/06/27 03:28:46;;;;;;;14.68;9.30;;;17.90;99.90;;;;;;5013757;28;20491;-84
2022/06/27 03:31:12;;;;;;;11.52;8.75;;;17.80;99.90;;;;;;5014241;28;20041;-84
2022/06/27 03:33:38;;;;;;;11.23;8.25;;;17.80;99.90;;;;;;5013000;28;20072;-84
2022/06/27 03:36:04;;;;;;;11.32;8.05;;;17.80;99.90;;;;;;5013746;28;20037;-83
2022/06/27 03:38:30;;;;;;;10.32;8.50;;;17.80;99.90;;;;;;5013876;28;20096;-83
2022/06/27 03:40:57;;;;;;;10.70;7.97;;;17.80;99.90;;;;;;5013354;28;20522;-84
2022/06/27 03:43:22;;;;;;;10.48;8.70;;;17.80;99.90;;;;;;4996973;28;20033;-84
2022/06/27 03:45:48;;;;;;;9.93;7.75;;;17.80;99.90;;;;;;5028167;28;20087;-84
2022/06/27 03:50:59;;;;;;;10.43;6.47;;;17.70;99.90;;;;;;5012959;28;20052;-84
2022/06/27 03:53:25;;;;;;;9.65;6.68;;;17.70;99.90;;;;;;4996825;28;20578;-84
2022/06/27 03:55:51;;;;;;;9.25;7.15;;;17.70;99.90;;;;;;5012940;28;20038;-84
2022/06/27 03:58:16;;;;;;;9.68;7.63;;;17.70;99.90;;;;;;5013106;28;20042;-84
2022/06/27 04:00:42;;;;;;;10.25;6.70;;;17.70;99.90;;;;;;5013796;28;20046;-84
2022/06/27 04:03:07;;;;;;;10.75;7.18;;;17.70;99.90;;;;;;5012908;28;20049;-84
2022/06/27 04:05:33;;;;;;;9.13;6.70;;;17.70;99.90;;;;;;5012758;28;20508;-84
2022/06/27 04:07:59;;;;;;;9.70;7.35;;;17.70;99.90;;;;;;5013526;28;20037;-83
2022/06/27 04:10:24;;;;;;;9.40;6.65;;;17.60;99.90;;;;;;5012574;28;20506;-84
2022/06/27 04:12:50;;;;;;;11.15;6.97;;;17.60;99.90;;;;;;5013621;28;20087;-84
2022/06/27 04:15:15;;;;;;;10.02;6.43;;;17.60;99.90;;;;;;5029986;28;20033;-84
2022/06/27 04:17:41;;;;;;;10.52;4.60;;;17.60;99.90;;;;;;5012904;28;20037;-84
2022/06/27 04:20:07;;;;;;;9.05;5.30;;;17.50;99.90;;;;;;5029282;28;20477;-84
2022/06/27 04:22:33;;;;;;;7.80;4.90;;;17.50;99.90;;;;;;4995912;28;20474;-84
2022/06/27 04:25:00;;;;;;;8.50;4.78;;;17.50;99.90;;;;;;4996196;28;20077;-84
2022/06/27 04:27:27;;;;;;;8.25;4.85;;;17.50;99.90;;;;;;4995981;28;20108;-84
2022/06/27 04:29:53;;;;;;;7.78;4.60;;;17.50;99.90;;;;;;5013024;28;20048;-84
2022/06/27 04:32:21;;;;;;;7.65;5.07;;;17.50;99.90;;;;;;5012542;28;20069;-84
2022/06/27 04:34:48;;;;;;;9.77;5.20;;;17.50;99.90;;;;;;4996725;28;20486;-84
2022/06/27 04:37:14;;;;;;;8.25;5.40;;;17.50;99.90;;;;;;5017299;28;20037;-84
2022/06/27 04:39:39;;;;;;;7.75;5.18;;;17.50;99.90;;;;;;4999456;28;20045;-84
2022/06/27 04:42:08;;;;;;;7.55;3.38;;;17.50;99.90;;;;;;5017307;28;20099;-84
2022/06/27 04:44:40;;;;;;;8.30;4.63;;;17.40;99.90;;;;;;5016562;28;20073;-84
2022/06/27 04:47:07;;;;;;;7.30;4.22;;;17.40;99.90;;;;;;4999848;28;20099;-84
2022/06/27 04:49:34;;;;;;;7.20;3.78;;;17.50;99.90;;;;;;5016905;28;20569;-84
2022/06/27 04:52:00;;;;;;;7.25;4.32;;;17.40;99.90;;;;;;5016586;28;20045;-84
2022/06/27 04:54:26;;;;;;;9.50;3.97;;;17.40;99.90;;;;;;5016285;28;20095;-84
2022/06/27 04:56:54;;;;;;;7.18;3.90;;;17.50;99.90;;;;;;5016267;28;20037;-84
2022/06/27 04:59:21;;;;;;;6.75;3.53;;;17.40;99.90;;;;;;5016322;28;20531;-84
2022/06/27 05:01:50;;;;;;;7.03;3.97;;;17.40;99.90;;;;;;5033210;28;20506;-84
2022/06/27 05:04:17;;;;;;;7.50;4.43;;;17.40;99.90;;;;;;4999760;28;20041;-84
2022/06/27 05:06:42;;;;;;;6.55;4.32;;;17.50;99.90;;;;;;5015795;28;20037;-84
2022/06/27 05:09:08;;;;;;;8.18;4.13;;;17.50;99.90;;;;;;5032450;28;20034;-84
2022/06/27 05:11:34;;;;;;;8.38;5.18;;;17.40;99.90;;;;;;5016249;28;20125;-84
2022/06/27 05:13:59;;;;;;;9.15;5.53;;;17.40;99.90;;;;;;5016226;28;20065;-84
2022/06/27 05:16:25;;;;;;;8.45;5.38;;;17.40;99.90;;;;;;5031108;28;20120;-84
2022/06/27 05:18:50;;;;;;;9.30;5.22;;;17.40;99.90;;;;;;5016445;28;20037;-83
2022/06/27 05:21:16;;;;;;;8.98;6.25;;;17.40;99.90;;;;;;5015689;28;20458;-84
2022/06/27 05:23:42;;;;;;;8.55;5.88;;;17.40;99.90;;;;;;4999487;28;20045;-84
2022/06/27 05:26:07;;;;;;;7.72;5.32;;;17.50;99.90;;;;;;5016012;28;20080;-84
2022/06/27 05:28:33;;;;;;;8.65;5.28;;;17.50;99.90;;;;;;5014784;28;20041;-84
2022/06/27 05:30:59;;;;;;;8.43;5.82;;;17.50;99.90;;;;;;4999640;28;20077;-84
2022/06/27 05:33:25;;;;;;;11.15;4.30;;;17.50;99.90;;;;;;5016026;28;20082;-84
2022/06/27 05:35:51;;;;;;;8.07;4.80;;;17.50;99.90;;;;;;5015061;28;20052;-84
2022/06/27 05:38:16;;;;;;;7.35;3.88;;;17.50;99.90;;;;;;5032445;28;20053;-84
2022/06/27 05:40:42;;;;;;;7.30;3.38;;;17.50;99.90;;;;;;5015509;28;20411;-84
2022/06/27 05:43:08;;;;;;;6.70;3.70;;;17.50;99.90;;;;;;4999458;28;20435;-84
2022/06/27 05:45:34;;;;;;;7.28;3.72;;;17.50;99.90;;;;;;5014924;28;20423;-84
2022/06/27 05:48:04;;;;;;;8.75;3.85;;;17.50;99.90;;;;;;5014533;28;20044;-84
2022/06/27 05:50:30;;;;;;;5.75;2.90;;;17.60;99.90;;;;;;4999491;28;20172;-84
2022/06/27 05:52:59;;;;;;;6.80;3.10;;;17.60;99.90;;;;;;5015344;28;20042;-84
2022/06/27 05:55:25;;;;;;;6.35;2.92;;;17.60;99.90;;;;;;5015014;28;20087;-84
2022/06/27 05:57:52;;;;;;;6.40;2.80;;;17.50;99.90;;;;;;5015776;28;20033;-84
2022/06/27 06:00:18;;;;;;;6.72;2.80;;;17.50;99.90;;;;;;4998302;28;20124;-84
2022/06/27 06:02:44;;;;;;;6.75;3.00;;;17.60;99.90;;;;;;5032422;28;20406;-84
2022/06/27 06:05:11;;;;;;;5.35;2.60;;;17.60;99.90;;;;;;5015797;28;20538;-84
2022/06/27 06:07:37;;;;;;;5.43;2.75;;;17.60;99.90;;;;;;5013977;28;20411;-84
2022/06/27 06:10:04;;;;;;;7.28;2.90;;;17.60;99.90;;;;;;5015411;28;20125;-84
2022/06/27 06:12:30;;;;;;;6.80;3.20;;;17.70;99.90;;;;;;4999105;28;20410;-84
2022/06/27 06:15:01;;;;;;;7.55;3.20;;;17.60;99.90;;;;;;5014662;28;20037;-84
2022/06/27 06:17:28;;;;;;;6.60;3.28;;;17.70;99.90;;;;;;5014589;28;20530;-84
2022/06/27 06:19:53;;;;;;;7.25;3.30;;;17.60;99.90;;;;;;4998117;28;20034;-84
2022/06/27 06:22:19;;;;;;;6.65;3.45;;;17.70;99.90;;;;;;5014644;28;20128;-84
2022/06/27 06:24:47;;;;;;;7.13;4.13;;;17.60;99.90;;;;;;5031867;28;20033;-84
2022/06/27 06:27:13;;;;;;;8.07;3.38;;;17.60;99.90;;;;;;4997842;28;20120;-84
2022/06/27 06:29:40;;;;;;;7.88;4.35;;;17.60;99.90;;;;;;5013928;28;20124;-85
2022/06/27 06:32:07;;;;;;;7.85;3.88;;;17.60;99.90;;;;;;5031299;28;20107;-84
2022/06/27 06:34:33;;;;;;;6.97;4.00;;;17.60;99.90;;;;;;5013933;28;20056;-84
2022/06/27 06:36:58;;;;;;;7.10;4.15;;;17.70;99.90;;;;;;4998149;28;20035;-84
2022/06/27 06:39:24;;;;;;;8.50;4.20;;;17.70;99.90;;;;;;5014708;28;20545;-84
2022/06/27 06:41:50;;;;;;;7.30;4.65;;;17.70;99.90;;;;;;5014331;28;20030;-84
2022/06/27 06:44:17;;;;;;;8.38;4.75;;;17.70;99.90;;;;;;5014985;28;20179;-84
2022/06/27 06:46:43;;;;;;;7.68;4.60;;;17.70;99.90;;;;;;4997540;28;20095;-84
2022/06/27 06:49:10;;;;;;;7.28;4.15;;;17.80;99.90;;;;;;5013065;28;20045;-85
2022/06/27 06:51:39;;;;;;;7.57;4.88;;;17.80;99.90;;;;;;5015204;28;20407;-85
2022/06/27 06:54:06;;;;;;;8.77;5.28;;;17.80;99.90;;;;;;5014087;28;20071;-84
2022/06/27 06:56:33;;;;;;;8.95;5.28;;;17.80;99.90;;;;;;5013480;28;20046;-84
2022/06/27 06:58:59;;;;;;;7.93;4.93;;;17.80;99.90;;;;;;4997889;28;20041;-84
2022/06/27 07:01:27;;;;;;;7.78;5.30;;;17.80;99.90;;;;;;5013644;28;20167;-84
2022/06/27 07:03:53;;;;;;;8.85;4.80;;;17.80;99.90;;;;;;5014633;28;20439;-84
2022/06/27 07:06:25;;;;;;;8.48;5.13;;;17.70;99.90;;;;;;5013782;28;20115;-84
2022/06/27 07:08:57;;;;;;;8.67;4.73;;;17.70;99.90;;;;;;4997052;28;20069;-84
2022/06/27 07:11:28;;;;;;;9.20;5.78;;;17.70;99.90;;;;;;4997288;28;20815;-84
2022/06/27 07:13:55;;;;;;;10.43;6.03;;;17.70;99.90;;;;;;4993376;28;20120;-84
2022/06/27 07:16:21;;;;;;;8.45;5.00;;;17.70;99.90;;;;;;5013830;28;20045;-84
2022/06/27 07:18:48;;;;;;;9.80;5.57;;;17.70;99.90;;;;;;5014091;28;20499;-84
2022/06/27 07:21:18;;;;;;;7.50;5.00;;;17.70;99.90;;;;;;5013529;28;20033;-84
2022/06/27 07:23:46;;;;;;;8.45;5.40;;;17.70;99.90;;;;;;5012625;28;20045;-84
2022/06/27 07:26:12;;;;;;;9.45;5.32;;;17.60;99.90;;;;;;5011548;28;20544;-84
2022/06/27 07:28:38;;;;;;;8.80;5.40;;;17.60;99.90;;;;;;5012609;28;20634;-84
2022/06/27 07:31:08;;;;;;;9.13;5.40;;;17.60;99.90;;;;;;5012181;28;20052;-84
2022/06/27 07:33:38;;;;;;;9.63;4.90;;;17.60;99.90;;;;;;5013152;28;20053;-85
2022/06/27 07:36:08;;;;;;;8.20;5.57;;;17.60;99.90;;;;;;4995490;28;20092;-84
2022/06/27 07:38:38;;;;;;;7.82;5.13;;;17.60;99.90;;;;;;4989565;28;20045;-84
2022/06/27 07:41:05;;;;;;;8.00;4.88;;;17.60;99.90;;;;;;5000777;28;20117;-84
2022/06/27 07:43:32;;;;;;;9.23;5.82;;;17.70;99.90;;;;;;5011395;28;20056;-84
2022/06/27 07:45:58;;;;;;;11.57;5.95;;;17.70;99.90;;;;;;5012713;28;20049;-84
2022/06/27 07:48:24;;;;;;;8.43;5.10;;;17.80;99.90;;;;;;5011476;28;20049;-84
2022/06/27 07:50:50;;;;;;;8.90;6.03;;;17.90;99.90;;;;;;5013094;28;20048;-84
2022/06/27 07:53:16;;;;;;;8.85;5.68;;;17.90;99.90;;;;;;5029359;28;20037;-84
2022/06/27 07:55:50;;;;;;;8.45;4.93;;;18.00;99.90;;;;;;5012266;28;20423;-84
2022/06/27 07:58:18;;;;;;;9.20;5.43;;;18.00;99.90;;;;;;4996196;28;20048;-84
2022/06/27 08:00:45;;;;;;;8.20;5.20;;;18.00;99.90;;;;;;5028295;28;20568;-84
2022/06/27 08:05:57;;;;;;;8.68;5.03;;;18.20;99.90;;;;;;5028341;28;20042;-84
2022/06/27 08:08:23;;;;;;;7.80;4.90;;;18.20;99.90;;;;;;4995237;28;20091;-84
2022/06/27 08:10:53;;;;;;;8.60;5.10;;;18.20;99.90;;;;;;5012044;28;20503;-84
2022/06/27 08:13:19;;;;;;;9.18;5.35;;;18.30;99.90;;;;;;4996384;28;20049;-84
2022/06/27 08:15:47;;;;;;;8.10;5.18;;;18.30;99.90;;;;;;5029106;28;20051;-84
2022/06/27 08:18:14;;;;;;;7.90;4.88;;;18.30;99.90;;;;;;5011787;28;20301;-84
2022/06/27 08:20:42;;;;;;;8.05;4.72;;;18.40;99.90;;;;;;5012513;28;20049;-84
2022/06/27 08:23:08;;;;;;;8.95;5.10;;;18.40;99.90;;;;;;5011642;28;20052;-84
2022/06/27 08:25:34;;;;;;;9.13;5.03;;;18.40;99.90;;;;;;5010023;28;20777;-81
2022/06/27 08:28:00;;;;;;;8.23;4.90;;;18.50;99.90;;;;;;5003980;28;20559;-84
2022/06/27 08:30:27;;;;;;;8.27;5.20;;;18.60;99.90;;;;;;5028377;28;20034;-84
2022/06/27 08:32:56;;;;;;;7.53;4.50;;;18.60;99.90;;;;;;5013299;28;20046;-84
2022/06/27 08:35:24;;;;;;;9.30;4.97;;;18.60;99.90;;;;;;5011695;28;20041;-84
2022/06/27 08:37:54;;;;;;;8.05;4.60;;;18.60;99.90;;;;;;5012449;28;20159;-84
2022/06/27 08:40:21;;;;;;;8.43;4.80;;;18.60;99.90;;;;;;4994796;28;20040;-84
2022/06/27 08:42:47;;;;;;;8.48;4.78;;;18.60;99.90;;;;;;4988677;28;20041;-84
2022/06/27 08:45:19;;;;;;;8.20;4.43;;;18.60;99.90;;;;;;5024516;28;20041;-84
2022/06/27 08:47:46;;;;;;;8.35;4.97;;;18.60;99.90;;;;;;5010010;28;20037;-84
2022/06/27 08:50:14;;;;;;;7.85;4.10;;;18.60;99.90;;;;;;4994543;28;20045;-84
2022/06/27 08:52:40;;;;;;;7.80;4.88;;;18.60;99.90;;;;;;4996148;28;20057;-84
2022/06/27 08:55:10;;;;;;;7.95;4.75;;;18.60;99.90;;;;;;4995401;28;20519;-84
2022/06/27 08:57:38;;;;;;;7.60;4.93;;;18.60;99.90;;;;;;4975171;28;20042;-85
2022/06/27 09:00:09;;;;;;;8.13;5.50;;;18.60;99.90;;;;;;4979259;28;20045;-85
2022/06/27 09:02:42;;;;;;;7.85;4.90;;;18.60;99.90;;;;;;4995178;28;20132;-85
2022/06/27 09:05:28;;;;;;;10.07;5.10;;;18.60;99.90;;;;;;5028633;28;20069;-85
2022/06/27 09:08:01;;;;;;;7.25;4.80;;;18.60;99.90;;;;;;5010531;28;20111;-84
2022/06/27 09:10:29;;;;;;;8.07;5.07;;;18.50;99.90;;;;;;5028252;28;20049;-85
2022/06/27 09:13:01;;;;;;;7.80;5.03;;;18.50;99.90;;;;;;5011873;28;20041;-84
2022/06/27 09:15:43;;;;;;;8.20;4.90;;;18.50;99.90;;;;;;4995479;28;20041;-84
2022/06/27 09:18:09;;;;;;;7.40;4.37;;;18.50;99.90;;;;;;4995851;28;20046;-85
2022/06/27 09:20:47;;;;;;;7.68;4.68;;;18.50;99.90;;;;;;5011329;28;20568;-84
2022/06/27 09:23:29;;;;;;;8.52;4.53;;;18.40;99.90;;;;;;5016001;28;20060;-84
2022/06/27 09:26:06;;;;;;;7.00;4.50;;;18.40;99.90;;;;;;5014592;28;20072;-84
2022/06/27 09:28:41;;;;;;;7.60;4.22;;;18.40;99.90;;;;;;4997559;28;20041;-85
2022/06/27 09:31:13;;;;;;;7.68;4.57;;;18.40;99.90;;;;;;5014714;28;20041;-85
2022/06/27 09:33:41;;;;;;;8.50;4.60;;;18.40;99.90;;;;;;5032405;28;20068;-84
2022/06/27 09:36:11;;;;;;;8.90;5.47;;;18.50;99.90;;;;;;5015035;28;20041;-84
2022/06/27 09:38:43;;;;;;;7.90;5.13;;;18.50;99.90;;;;;;5014890;28;20033;-84
2022/06/27 09:41:12;;;;;;;8.93;6.00;;;18.50;99.90;;;;;;5031232;28;20053;-85
2022/06/27 09:43:42;;;;;;;8.73;4.68;;;18.50;99.90;;;;;;5024784;28;20033;-85
2022/06/27 09:46:10;;;;;;;7.85;4.88;;;18.60;99.90;;;;;;5034893;28;20094;-84
2022/06/27 09:48:38;;;;;;;8.43;4.50;;;18.60;99.90;;;;;;5021558;28;20113;-84
2022/06/27 09:51:04;;;;;;;8.60;4.82;;;18.60;99.90;;;;;;4998175;28;20087;-84
2022/06/27 09:53:30;;;;;;;8.07;4.90;;;18.60;99.90;;;;;;5015617;28;20049;-84
2022/06/27 09:55:58;;;;;;;8.23;4.82;;;18.60;99.90;;;;;;5015224;28;20037;-85
2022/06/27 09:58:25;;;;;;;8.13;4.80;;;18.70;99.90;;;;;;5014517;28;20684;-85
2022/06/27 10:00:51;;;;;;;8.45;4.55;;;18.70;99.90;;;;;;4997255;28;20045;-85
2022/06/27 10:03:16;;;;;;;8.25;5.03;;;18.70;99.90;;;;;;5014403;28;20048;-84
2022/06/27 10:05:44;;;;;;;8.50;5.07;;;18.80;99.90;;;;;;5014427;28;20033;-85
2022/06/27 10:08:10;;;;;;;7.78;5.28;;;18.80;99.90;;;;;;5013669;28;20045;-84
2022/06/27 10:11:15;;;;;;;8.75;5.22;;;18.90;99.90;;;;;;5014472;28;20046;-85
2022/06/27 10:13:44;;;;;;;8.02;4.72;;;18.90;99.90;;;;;;4953909;28;20121;-85
2022/06/27 10:16:14;;;;;;;8.57;4.70;;;18.90;99.90;;;;;;4954333;28;20045;-85
2022/06/27 10:19:03;;;;;;;8.65;5.03;;;19.00;99.90;;;;;;4953784;28;20520;-85
2022/06/27 10:21:42;;;;;;;7.78;4.82;;;19.00;99.90;;;;;;4953045;28;20047;-85
2022/06/27 10:24:21;;;;;;;8.48;4.72;;;19.00;99.90;;;;;;4952401;28;20039;-85
2022/06/27 10:26:50;;;;;;;7.43;4.65;;;19.00;99.90;;;;;;4936783;28;20035;-85
2022/06/27 10:29:30;;;;;;;7.65;4.55;;;18.90;99.90;;;;;;4952148;28;20042;-85
2022/06/27 10:31:56;;;;;;;7.05;4.28;;;19.00;99.90;;;;;;4936706;28;20066;-85
2022/06/27 10:34:39;;;;;;;7.38;4.55;;;18.90;99.90;;;;;;4952589;28;20049;-84
2022/06/27 10:37:26;;;;;;;7.45;4.00;;;19.00;99.90;;;;;;4938679;28;20073;-85
2022/06/27 10:40:13;;;;;;;6.20;3.63;;;19.00;99.90;;;;;;4953650;28;20038;-84
2022/06/27 10:42:51;;;;;;;8.57;4.13;;;19.00;99.90;;;;;;4925159;28;20277;-85
2022/06/27 10:45:20;;;;;;;7.38;4.10;;;19.10;99.90;;;;;;5005042;28;20053;-84
2022/06/27 10:47:47;;;;;;;8.02;4.40;;;19.10;99.90;;;;;;5012909;28;20042;-85
2022/06/27 10:50:15;;;;;;;7.43;4.40;;;19.10;99.90;;;;;;5012441;28;20040;-84
2022/06/27 10:52:41;;;;;;;8.07;4.43;;;19.10;99.90;;;;;;5031631;28;20033;-85
2022/06/27 10:55:29;;;;;;;7.20;4.60;;;19.20;99.90;;;;;;5014872;28;20399;-84
2022/06/27 10:57:56;;;;;;;7.15;4.35;;;19.20;99.90;;;;;;4996301;28;20042;-85
2022/06/27 11:00:40;;;;;;;8.38;4.68;;;19.20;99.90;;;;;;4996893;28;20037;-85
2022/06/27 11:03:08;;;;;;;7.30;4.25;;;19.30;99.90;;;;;;5013884;28;20099;-84
2022/06/27 11:05:58;;;;;;;8.05;4.05;;;19.30;99.90;;;;;;5013564;28;20116;-85
2022/06/27 11:08:24;;;;;;;8.15;4.25;;;19.30;99.90;;;;;;5013682;28;20472;-85
2022/06/27 11:10:51;;;;;;;8.15;4.18;;;19.30;99.90;;;;;;4995656;28;20088;-85
2022/06/27 11:13:48;;;;;;;7.32;4.47;;;19.40;99.90;;;;;;5014334;28;20037;-84
2022/06/27 11:16:20;;;;;;;7.57;4.28;;;19.40;99.90;;;;;;5012947;28;20045;-84
2022/06/27 11:21:50;;;;;;;7.45;4.30;;;19.30;99.90;;;;;;5013435;28;20049;-85
2022/06/27 11:24:16;;;;;;;7.43;4.65;;;19.30;99.90;;;;;;5013285;28;20038;-85
2022/06/27 11:26:47;;;;;;;7.45;4.75;;;19.40;99.90;;;;;;5013701;28;20029;-84
2022/06/27 11:32:10;;;;;;;7.35;4.97;;;19.40;99.90;;;;;;5029529;28;20049;-84
2022/06/27 11:34:42;;;;;;;8.32;5.80;;;19.50;99.90;;;;;;5014646;28;20411;-85
2022/06/27 11:37:19;;;;;;;8.48;5.05;;;19.50;99.90;;;;;;5019892;28;20071;-84
2022/06/27 11:40:02;;;;;;;7.15;4.70;;;19.60;99.90;;;;;;5012353;28;20045;-84
2022/06/27 11:42:32;;;;;;;6.85;4.30;;;19.50;99.90;;;;;;5029320;28;20049;-85
2022/06/27 11:45:10;;;;;;;7.88;4.60;;;19.50;99.90;;;;;;5013700;28;20037;-84
2022/06/27 11:47:39;;;;;;;7.50;4.40;;;19.50;99.90;;;;;;4997041;28;20038;-84
2022/06/27 11:50:06;;;;;;;7.15;4.20;;;19.50;99.90;;;;;;4994889;28;20045;-84
2022/06/27 11:52:43;;;;;;;7.85;3.58;;;19.50;99.90;;;;;;5013347;28;20068;-85
2022/06/27 11:55:12;;;;;;;6.40;3.53;;;19.50;99.90;;;;;;5005239;28;20053;-84
2022/06/27 11:57:42;;;;;;;7.43;3.67;;;19.50;99.90;;;;;;4996664;28;20057;-84
2022/06/27 12:00:19;;;;;;;5.78;2.83;;;19.50;99.90;;;;;;5012062;28;20041;-84
2022/06/27 12:02:45;;;;;;;6.57;3.15;;;19.50;99.90;;;;;;5012610;28;20083;-84
2022/06/27 12:05:13;;;;;;;5.82;2.90;;;19.50;99.90;;;;;;5013802;28;20398;-84
2022/06/27 12:07:56;;;;;;;6.40;3.08;;;19.50;99.90;;;;;;4996355;28;20418;-84
2022/06/27 12:10:44;;;;;;;5.82;2.92;;;19.60;99.90;;;;;;4995075;28;20045;-84
2022/06/27 12:13:15;;;;;;;6.65;2.95;;;19.60;99.90;;;;;;4996051;28;20049;-84
2022/06/27 12:15:43;;;;;;;6.10;3.03;;;19.60;99.90;;;;;;4996781;28;20556;-84
2022/06/27 12:18:12;;;;;;;7.43;3.13;;;19.60;99.90;;;;;;5028483;28;20037;-84
2022/06/27 12:20:39;;;;;;;5.57;2.47;;;19.70;99.90;;;;;;5028077;28;20462;-84
2022/06/27 12:23:04;;;;;;;5.85;2.90;;;19.60;99.90;;;;;;5028181;28;20133;-84
2022/06/27 12:25:30;;;;;;;5.97;2.70;;;19.70;99.90;;;;;;5012268;28;20120;-85
2022/06/27 12:27:56;;;;;;;6.53;3.15;;;19.70;99.90;;;;;;5012905;28;20446;-85
2022/06/27 12:30:22;;;;;;;6.15;2.80;;;19.70;99.90;;;;;;4994676;28;20064;-84
2022/06/27 12:32:47;;;;;;;6.38;2.88;;;19.80;99.90;;;;;;5012290;28;20033;-85
2022/06/27 12:35:13;;;;;;;6.28;2.63;;;19.70;99.90;;;;;;5012834;28;20041;-84
2022/06/27 12:37:39;;;;;;;6.50;2.55;;;19.70;99.90;;;;;;4995745;28;20099;-84
2022/06/27 12:40:07;;;;;;;7.32;3.10;;;19.70;99.90;;;;;;4995462;28;20037;-84
2022/06/27 12:42:33;;;;;;;8.00;3.50;;;19.70;99.90;;;;;;4995812;28;20069;-84
2022/06/27 12:44:59;;;;;;;5.88;2.60;;;19.70;99.90;;;;;;5025658;28;20045;-84
2022/06/27 12:47:25;;;;;;;7.07;3.40;;;19.70;99.90;;;;;;4994065;28;20095;-84
2022/06/27 12:49:51;;;;;;;6.60;2.92;;;19.70;99.90;;;;;;5011184;28;20037;-84
2022/06/27 12:52:16;;;;;;;6.50;2.85;;;19.60;99.90;;;;;;5012246;28;20049;-85
2022/06/27 12:54:43;;;;;;;6.35;3.25;;;19.60;99.90;;;;;;5027861;28;20110;-84
2022/06/27 12:57:08;;;;;;;6.72;3.08;;;19.60;99.90;;;;;;5014988;28;20045;-85
2022/06/27 12:59:34;;;;;;;6.13;2.90;;;19.60;99.90;;;;;;5031403;28;20121;-84